createdAt,value
2018-11-29T00:07:01.281Z,5.16
2018-11-29T00:09:39.286Z,5.40
2018-11-29T00:12:14.525Z,5.47
2018-11-29T00:14:49.450Z,5.44
2018-11-29T00:17:24.275Z,5.15
2018-11-29T00:19:59.316Z,5.13
2018-11-29T00:22:34.595Z,4.97
2018-11-29T00:25:11.452Z,5.01
2018-11-29T00:27:46.638Z,5.14
2018-11-29T00:30:22.525Z,5.10
2018-11-29T00:32:57.454Z,5.15
2018-11-29T00:35:33.514Z,5.15
2018-11-29T00:38:08.238Z,5.18
2018-11-29T00:40:43.066Z,5.20
2018-11-29T00:43:17.898Z,5.24
2018-11-29T00:45:52.930Z,5.29
2018-11-29T00:48:27.655Z,5.34
2018-11-29T00:51:02.689Z,5.53
2018-11-29T00:53:37.620Z,5.61
2018-11-29T00:56:12.761Z,5.51
2018-11-29T00:58:47.634Z,5.42
2018-11-29T01:01:22.568Z,5.19
2018-11-29T01:03:57.558Z,5.08
2018-11-29T01:06:32.586Z,4.71
2018-11-29T01:09:09.053Z,4.09
2018-11-29T01:11:43.784Z,4.46
2018-11-29T01:14:18.610Z,4.67
2018-11-29T01:16:53.437Z,4.98
2018-11-29T01:19:28.468Z,5.20
2018-11-29T01:22:03.457Z,4.81
2018-11-29T01:24:38.433Z,4.41
2018-11-29T01:27:13.262Z,4.91
2018-11-29T01:29:47.989Z,5.27
2018-11-29T01:32:22.817Z,5.43
2018-11-29T01:34:57.852Z,4.97
2018-11-29T01:37:32.885Z,5.30
2018-11-29T01:40:17.073Z,5.43
2018-11-29T01:42:56.130Z,5.42
2018-11-29T01:45:30.896Z,5.57
2018-11-29T01:48:06.156Z,5.53
2018-11-29T01:50:41.161Z,5.56
2018-11-29T01:53:16.091Z,5.76
2018-11-29T01:55:51.126Z,5.80
2018-11-29T01:58:26.364Z,5.79
2018-11-29T02:01:01.296Z,5.88
2018-11-29T02:03:36.021Z,5.95
2018-11-29T02:06:11.058Z,5.73
2018-11-29T02:08:45.973Z,5.59
2018-11-29T02:11:20.921Z,5.75
2018-11-29T02:13:55.930Z,5.78
2018-11-29T02:16:30.882Z,5.87
2018-11-29T02:19:05.818Z,5.80
2018-11-29T02:21:40.849Z,5.84
2018-11-29T02:24:15.603Z,5.86
2018-11-29T02:26:50.611Z,5.87
2018-11-29T02:29:25.436Z,5.89
2018-11-29T02:32:00.269Z,5.92
2018-11-29T02:34:35.297Z,5.84
2018-11-29T02:37:10.229Z,5.79
2018-11-29T02:39:45.366Z,5.94
2018-11-29T02:42:20.092Z,5.98
2018-11-29T02:44:54.922Z,5.93
2018-11-29T02:47:29.955Z,6.01
2018-11-29T02:50:04.889Z,6.03
2018-11-29T02:52:39.919Z,6.00
2018-11-29T02:55:14.869Z,5.97
2018-11-29T02:57:49.872Z,5.95
2018-11-29T03:00:24.715Z,6.07
2018-11-29T03:02:59.570Z,5.93
2018-11-29T03:05:34.574Z,5.94
2018-11-29T03:08:09.299Z,5.85
2018-11-29T03:10:44.335Z,5.74
2018-11-29T03:13:19.165Z,5.83
2018-11-29T03:15:53.891Z,5.78
2018-11-29T03:18:28.992Z,5.84
2018-11-29T03:21:04.267Z,5.81
2018-11-29T03:23:39.027Z,5.87
2018-11-29T03:26:14.127Z,5.96
2018-11-29T03:28:49.160Z,5.99
2018-11-29T03:31:24.134Z,5.87
2018-11-29T03:33:59.156Z,5.90
2018-11-29T03:36:34.339Z,5.90
2018-11-29T03:39:09.295Z,6.06
2018-11-29T03:41:44.123Z,5.70
2018-11-29T03:44:19.242Z,5.62
2018-11-29T03:46:54.293Z,5.63
2018-11-29T03:49:29.281Z,5.39
2018-11-29T03:52:04.055Z,5.12
2018-11-29T03:54:38.882Z,4.91
2018-11-29T03:57:13.711Z,4.82
2018-11-29T03:59:48.846Z,4.48
2018-11-29T04:02:24.086Z,4.61
2018-11-29T04:04:58.914Z,4.93
2018-11-29T04:07:33.845Z,4.70
2018-11-29T04:10:10.432Z,4.69
2018-11-29T04:12:45.345Z,4.32
2018-11-29T04:15:20.015Z,4.75
2018-11-29T04:17:54.943Z,4.72
2018-11-29T04:20:29.833Z,4.73
2018-11-29T04:23:04.665Z,5.11
2018-11-29T04:25:39.805Z,5.22
2018-11-29T04:28:14.830Z,5.34
2018-11-29T04:30:49.832Z,5.42
2018-11-29T04:33:24.724Z,5.24
2018-11-29T04:35:59.729Z,5.44
2018-11-29T04:38:34.657Z,5.53
2018-11-29T04:41:09.505Z,5.58
2018-11-29T04:43:44.421Z,5.51
2018-11-29T04:46:52.282Z,5.59
2018-11-29T04:49:27.356Z,5.58
2018-11-29T04:52:02.258Z,5.68
2018-11-29T04:54:37.424Z,5.47
2018-11-29T04:57:12.457Z,5.20
2018-11-29T04:59:47.491Z,5.52
2018-11-29T05:02:22.319Z,5.78
2018-11-29T05:04:57.254Z,5.88
2018-11-29T05:07:32.385Z,5.96
2018-11-29T05:10:08.907Z,5.92
2018-11-29T05:12:43.653Z,5.85
2018-11-29T05:15:18.510Z,5.84
2018-11-29T05:17:53.441Z,5.89
2018-11-29T05:20:28.474Z,5.57
2018-11-29T05:23:03.305Z,5.61
2018-11-29T05:25:38.237Z,5.60
2018-11-29T05:28:13.069Z,5.62
2018-11-29T05:30:48.179Z,5.66
2018-11-29T05:33:23.131Z,5.79
2018-11-29T05:35:57.959Z,5.68
2018-11-29T05:38:32.686Z,5.40
2018-11-29T05:41:07.821Z,5.63
2018-11-29T05:43:43.352Z,5.47
2018-11-29T05:46:18.404Z,5.74
2018-11-29T05:48:53.036Z,5.48
2018-11-29T05:51:27.700Z,5.24
2018-11-29T05:54:02.485Z,5.57
2018-11-29T05:56:37.416Z,5.78
2018-11-29T05:59:12.086Z,5.88
2018-11-29T06:01:47.939Z,5.86
2018-11-29T06:04:22.586Z,5.14
2018-11-29T06:06:57.748Z,5.09
2018-11-29T06:09:32.576Z,5.34
2018-11-29T06:12:07.289Z,5.44
2018-11-29T06:14:42.200Z,5.56
2018-11-29T06:17:16.968Z,5.62
2018-11-29T06:19:51.894Z,5.60
2018-11-29T06:22:26.618Z,5.58
2018-11-29T06:25:01.452Z,5.52
2018-11-29T06:27:36.597Z,5.67
2018-11-29T06:30:19.146Z,5.71
2018-11-29T06:32:53.955Z,5.32
2018-11-29T06:35:29.041Z,5.20
2018-11-29T06:38:03.886Z,5.46
2018-11-29T06:40:38.921Z,5.53
2018-11-29T06:43:13.646Z,5.65
2018-11-29T06:45:48.783Z,5.63
2018-11-29T06:48:23.713Z,5.64
2018-11-29T06:50:58.541Z,5.62
2018-11-29T06:53:38.695Z,5.51
2018-11-29T06:56:13.525Z,5.55
2018-11-29T06:58:48.464Z,5.54
2018-11-29T07:01:23.713Z,5.52
2018-11-29T07:03:58.528Z,5.50
2018-11-29T07:06:33.562Z,5.54
2018-11-29T07:09:09.513Z,5.58
2018-11-29T07:11:44.444Z,5.56
2018-11-29T07:14:19.374Z,5.60
2018-11-29T07:16:54.343Z,5.66
2018-11-29T07:19:29.165Z,5.69
2018-11-29T07:22:04.276Z,5.69
2018-11-29T07:24:38.944Z,5.65
2018-11-29T07:27:13.927Z,5.72
2018-11-29T07:29:48.860Z,5.84
2018-11-29T07:32:24.508Z,5.91
2018-11-29T07:34:59.438Z,5.95
2018-11-29T07:37:34.370Z,5.88
2018-11-29T07:40:13.381Z,5.79
2018-11-29T07:42:51.450Z,5.82
2018-11-29T07:45:26.639Z,5.65
2018-11-29T07:48:01.466Z,5.21
2018-11-29T07:50:36.206Z,5.38
2018-11-29T07:53:11.228Z,5.70
2018-11-29T07:55:45.953Z,5.80
2018-11-29T07:58:20.885Z,5.96
2018-11-29T08:00:56.225Z,5.99
2018-11-29T08:03:31.156Z,6.04
2018-11-29T08:06:06.192Z,6.12
2018-11-29T08:08:41.021Z,6.16
2018-11-29T08:11:15.853Z,6.03
2018-11-29T08:13:50.780Z,5.88
2018-11-29T08:16:25.811Z,5.92
2018-11-29T08:19:00.847Z,1.77
2018-11-29T08:21:35.674Z,6.29
2018-11-29T08:24:10.503Z,6.24
2018-11-29T08:26:45.789Z,6.29
2018-11-29T08:29:20.775Z,6.45
2018-11-29T08:31:55.707Z,6.40
2018-11-29T08:34:30.366Z,6.63
2018-11-29T08:37:05.470Z,6.80
2018-11-29T08:39:40.503Z,6.86
2018-11-29T08:42:15.431Z,7.00
2018-11-29T08:44:50.465Z,7.07
2018-11-29T08:47:25.762Z,7.14
2018-11-29T08:50:00.841Z,7.34
2018-11-29T08:52:35.668Z,7.32
2018-11-29T08:55:12.137Z,7.18
2018-11-29T08:57:47.743Z,7.16
2018-11-29T09:00:23.200Z,7.35
2018-11-29T09:02:58.055Z,7.54
2018-11-29T09:05:34.092Z,7.68
2018-11-29T09:08:08.820Z,7.70
2018-11-29T09:10:43.772Z,7.63
2018-11-29T09:13:18.907Z,7.73
2018-11-29T09:15:53.838Z,7.74
2018-11-29T09:18:28.871Z,7.73
2018-11-29T09:21:03.803Z,7.64
2018-11-29T09:23:38.944Z,7.80
2018-11-29T09:26:13.872Z,7.83
2018-11-29T09:28:48.698Z,7.99
2018-11-29T09:31:23.733Z,8.03
2018-11-29T09:33:58.726Z,8.16
2018-11-29T09:36:33.691Z,8.21
2018-11-29T09:39:10.165Z,8.28
2018-11-29T09:41:44.993Z,8.37
2018-11-29T09:44:19.822Z,8.49
2018-11-29T09:46:54.753Z,8.61
2018-11-29T09:49:29.685Z,8.58
2018-11-29T09:52:04.513Z,8.74
2018-11-29T09:54:39.444Z,8.79
2018-11-29T09:57:14.277Z,8.44
2018-11-29T09:59:49.204Z,8.89
2018-11-29T10:02:24.033Z,8.91
2018-11-29T10:04:58.826Z,8.98
2018-11-29T10:07:34.001Z,8.88
2018-11-29T10:10:10.979Z,8.87
2018-11-29T10:12:45.911Z,8.90
2018-11-29T10:15:21.057Z,8.94
2018-11-29T10:17:56.085Z,8.89
2018-11-29T10:20:30.789Z,7.94
2018-11-29T10:23:06.907Z,8.85
2018-11-29T10:25:42.198Z,8.89
2018-11-29T10:28:17.548Z,8.86
2018-11-29T10:30:58.943Z,8.86
2018-11-29T10:33:33.866Z,8.72
2018-11-29T10:36:09.817Z,8.76
2018-11-29T10:38:44.849Z,9.03
2018-11-29T10:41:19.675Z,9.39
2018-11-29T10:43:54.505Z,9.53
2018-11-29T10:46:29.538Z,9.64
2018-11-29T10:49:04.571Z,9.67
2018-11-29T10:51:39.298Z,9.57
2018-11-29T10:54:16.889Z,9.42
2018-11-29T10:56:51.665Z,9.59
2018-11-29T10:59:26.682Z,9.82
2018-11-29T11:02:07.949Z,9.72
2018-11-29T11:04:42.965Z,9.68
2018-11-29T11:07:18.000Z,9.73
2018-11-29T11:09:52.901Z,9.77
2018-11-29T11:12:27.865Z,9.71
2018-11-29T11:15:02.998Z,9.37
2018-11-29T11:17:37.827Z,9.47
2018-11-29T11:20:12.757Z,9.83
2018-11-29T11:22:47.892Z,9.69
2018-11-29T11:25:23.030Z,9.67
2018-11-29T11:27:57.963Z,9.80
2018-11-29T11:30:32.997Z,9.77
2018-11-29T11:33:08.028Z,9.52
2018-11-29T11:35:42.856Z,9.52
2018-11-29T11:38:17.788Z,9.67
2018-11-29T11:40:52.616Z,9.45
2018-11-29T11:43:27.605Z,9.62
2018-11-29T11:46:02.615Z,9.81
2018-11-29T11:48:37.615Z,10.07
2018-11-29T11:51:12.444Z,10.04
2018-11-29T11:53:47.276Z,10.21
2018-11-29T11:56:22.920Z,10.16
2018-11-29T11:58:58.162Z,10.33
2018-11-29T12:01:33.091Z,10.35
2018-11-29T12:04:08.273Z,10.22
2018-11-29T12:06:43.164Z,10.19
2018-11-29T12:09:18.158Z,10.27
2018-11-29T12:11:53.252Z,10.28
2018-11-29T12:14:28.258Z,10.32
2018-11-29T12:17:02.862Z,10.36
2018-11-29T12:19:37.815Z,10.38
2018-11-29T12:22:12.744Z,10.28
2018-11-29T12:24:47.442Z,10.43
2018-11-29T12:27:22.403Z,10.55
2018-11-29T12:29:57.335Z,10.57
2018-11-29T12:32:32.471Z,10.55
2018-11-29T12:35:07.503Z,10.40
2018-11-29T12:37:42.641Z,10.30
2018-11-29T12:40:17.739Z,10.30
2018-11-29T12:42:52.571Z,10.14
2018-11-29T12:45:27.740Z,10.15
2018-11-29T12:48:02.570Z,10.21
2018-11-29T12:50:38.909Z,10.33
2018-11-29T12:53:13.967Z,10.38
2018-11-29T12:55:49.055Z,10.40
2018-11-29T12:58:24.035Z,10.19
2018-11-29T13:00:59.069Z,10.36
2018-11-29T13:03:33.903Z,10.30
2018-11-29T13:06:09.136Z,10.41
2018-11-29T13:08:44.068Z,10.44
2018-11-29T13:11:19.926Z,10.44
2018-11-29T13:13:54.863Z,10.49
2018-11-29T13:16:29.579Z,10.52
2018-11-29T13:19:04.407Z,10.31
2018-11-29T13:21:39.380Z,10.26
2018-11-29T13:24:14.372Z,10.03
2018-11-29T13:26:49.320Z,10.04
2018-11-29T13:29:24.336Z,10.15
2018-11-29T13:31:59.167Z,10.26
2018-11-29T13:34:34.097Z,10.34
2018-11-29T13:37:08.974Z,9.72
2018-11-29T13:39:43.881Z,10.35
2018-11-29T13:42:18.789Z,10.14
2018-11-29T13:44:54.891Z,9.97
2018-11-29T13:47:29.834Z,9.73
2018-11-29T13:50:05.531Z,9.48
2018-11-29T13:52:40.464Z,9.37
2018-11-29T13:55:16.496Z,9.47
2018-11-29T13:57:51.616Z,9.67
2018-11-29T14:00:26.582Z,9.83
2018-11-29T14:03:05.868Z,9.74
2018-11-29T14:05:40.882Z,9.71
2018-11-29T14:08:16.033Z,9.68
2018-11-29T14:10:50.742Z,9.57
2018-11-29T14:13:25.738Z,9.54
2018-11-29T14:16:00.703Z,9.49
2018-11-29T14:18:35.709Z,9.57
2018-11-29T14:21:10.554Z,9.55
2018-11-29T14:23:45.600Z,9.42
2018-11-29T14:26:20.749Z,9.51
2018-11-29T14:28:55.745Z,9.49
2018-11-29T14:31:30.675Z,9.51
2018-11-29T14:34:06.730Z,9.33
2018-11-29T14:36:41.459Z,9.21
2018-11-29T14:39:16.288Z,9.31
2018-11-29T14:41:51.320Z,9.47
2018-11-29T14:44:26.059Z,9.51
2018-11-29T14:47:00.885Z,9.49
2018-11-29T14:49:35.806Z,9.27
2018-11-29T14:52:10.636Z,9.38
2018-11-29T14:54:45.238Z,9.36
2018-11-29T14:57:21.529Z,9.32
2018-11-29T14:59:56.380Z,9.18
2018-11-29T15:02:31.486Z,9.18
2018-11-29T15:05:15.866Z,9.06
2018-11-29T15:07:50.974Z,9.11
2018-11-29T15:10:25.809Z,8.94
2018-11-29T15:13:00.836Z,8.54
2018-11-29T15:15:36.078Z,6.71
2018-11-29T15:18:11.778Z,8.39
2018-11-29T15:20:47.761Z,8.74
2018-11-29T15:23:22.711Z,8.88
2018-11-29T15:25:58.064Z,7.30
2018-11-29T15:28:32.976Z,8.74
2018-11-29T15:31:08.018Z,8.72
2018-11-29T15:33:43.264Z,8.72
2018-11-29T15:36:18.188Z,8.79
2018-11-29T15:38:53.156Z,8.79
2018-11-29T15:41:28.054Z,8.45
2018-11-29T15:44:03.032Z,8.69
2018-11-29T15:46:37.943Z,8.66
2018-11-29T15:49:12.844Z,8.69
2018-11-29T15:51:47.880Z,8.66
2018-11-29T15:54:22.809Z,8.49
2018-11-29T15:56:57.740Z,7.30
2018-11-29T15:59:32.884Z,7.71
2018-11-29T16:02:08.116Z,8.08
2018-11-29T16:04:42.983Z,8.29
2018-11-29T16:07:18.735Z,8.45
2018-11-29T16:09:53.728Z,8.27
2018-11-29T16:12:28.669Z,8.34
2018-11-29T16:15:03.516Z,8.20
2018-11-29T16:17:38.623Z,8.00
2018-11-29T16:20:15.690Z,7.64
2018-11-29T16:22:50.534Z,7.91
2018-11-29T16:25:25.466Z,8.16
2018-11-29T16:28:00.355Z,7.85
2018-11-29T16:30:43.575Z,8.14
2018-11-29T16:33:24.642Z,7.92
2018-11-29T16:35:59.783Z,7.74
2018-11-29T16:38:34.752Z,7.88
2018-11-29T16:41:09.799Z,8.09
2018-11-29T16:43:45.855Z,8.19
2018-11-29T16:46:20.685Z,8.23
2018-11-29T16:48:55.494Z,8.20
2018-11-29T16:51:31.387Z,8.43
2018-11-29T16:54:06.502Z,8.68
2018-11-29T16:56:41.741Z,8.78
2018-11-29T16:59:17.019Z,8.85
2018-11-29T17:01:51.809Z,8.62
2018-11-29T17:04:26.637Z,8.79
2018-11-29T17:07:02.185Z,8.80
2018-11-29T17:09:36.909Z,8.73
2018-11-29T17:12:11.942Z,8.77
2018-11-29T17:14:46.565Z,8.61
2018-11-29T17:17:21.703Z,8.54
2018-11-29T17:19:56.532Z,8.45
2018-11-29T17:22:31.360Z,8.48
2018-11-29T17:25:07.814Z,8.26
2018-11-29T17:27:42.909Z,8.74
2018-11-29T17:30:22.717Z,8.43
2018-11-29T17:32:58.636Z,8.81
2018-11-29T17:35:34.004Z,8.80
2018-11-29T17:38:08.832Z,9.15
2018-11-29T17:40:43.869Z,9.09
2018-11-29T17:43:18.695Z,9.21
2018-11-29T17:45:53.525Z,9.24
2018-11-29T17:48:28.252Z,9.24
2018-11-29T17:51:03.368Z,9.11
2018-11-29T17:53:38.312Z,9.04
2018-11-29T17:56:13.656Z,7.03
2018-11-29T17:58:48.692Z,8.86
2018-11-29T18:01:23.725Z,8.87
2018-11-29T18:03:58.605Z,8.56
2018-11-29T18:06:33.486Z,8.88
2018-11-29T18:09:11.396Z,9.13
2018-11-29T18:11:46.317Z,9.30
2018-11-29T18:14:21.355Z,9.15
2018-11-29T18:16:56.454Z,9.32
2018-11-29T18:19:31.337Z,9.49
2018-11-29T18:22:06.555Z,9.58
2018-11-29T18:24:41.485Z,9.55
2018-11-29T18:27:16.295Z,9.37
2018-11-29T18:29:51.329Z,9.17
2018-11-29T18:32:26.178Z,9.16
2018-11-29T18:35:01.238Z,9.15
2018-11-29T18:37:36.449Z,9.02
2018-11-29T18:40:15.221Z,9.01
2018-11-29T18:42:52.514Z,8.93
2018-11-29T18:45:27.911Z,8.43
2018-11-29T18:48:02.933Z,7.68
2018-11-29T18:50:37.905Z,7.31
2018-11-29T18:53:12.915Z,7.42
2018-11-29T18:55:48.033Z,7.36
2018-11-29T18:58:22.967Z,7.11
2018-11-29T19:00:57.794Z,7.13
2018-11-29T19:03:32.826Z,7.46
2018-11-29T19:06:07.667Z,7.04
2018-11-29T19:08:42.344Z,7.01
2018-11-29T19:11:17.166Z,7.39
2018-11-29T19:13:51.937Z,7.52
2018-11-29T19:16:26.873Z,7.69
2018-11-29T19:19:01.563Z,7.49
2018-11-29T19:21:37.402Z,7.68
2018-11-29T19:24:12.177Z,7.77
2018-11-29T19:26:46.998Z,7.90
2018-11-29T19:29:21.920Z,7.92
2018-11-29T19:31:56.681Z,8.03
2018-11-29T19:34:31.465Z,8.20
2018-11-29T19:37:06.436Z,8.51
2018-11-29T19:39:41.225Z,8.74
2018-11-29T19:42:16.180Z,8.91
2018-11-29T19:44:51.092Z,8.87
2018-11-29T19:47:27.168Z,8.73
2018-11-29T19:50:02.104Z,8.81
2018-11-29T19:52:37.110Z,8.58
2018-11-29T19:55:14.053Z,8.60
2018-11-29T19:57:48.842Z,8.53
2018-11-29T20:00:23.772Z,7.75
2018-11-29T20:02:58.612Z,8.17
2018-11-29T20:05:34.696Z,7.89
2018-11-29T20:08:09.394Z,7.71
2018-11-29T20:10:44.092Z,7.88
2018-11-29T20:13:19.042Z,8.03
2018-11-29T20:15:55.166Z,7.99
2018-11-29T20:18:30.034Z,8.17
2018-11-29T20:21:05.457Z,8.21
2018-11-29T20:23:41.022Z,8.25
2018-11-29T20:26:16.055Z,8.28
2018-11-29T20:28:50.969Z,8.43
2018-11-29T20:31:26.299Z,8.66
2018-11-29T20:34:01.465Z,8.76
2018-11-29T20:36:36.497Z,8.73
2018-11-29T20:39:11.531Z,8.65
2018-11-29T20:41:46.378Z,8.61
2018-11-29T20:44:21.188Z,8.54
2018-11-29T20:46:56.068Z,8.48
2018-11-29T20:49:31.890Z,8.55
2018-11-29T20:52:08.337Z,8.59
2018-11-29T20:54:43.950Z,8.55
2018-11-29T20:57:19.019Z,8.33
2018-11-29T20:59:54.052Z,8.02
2018-11-29T21:02:29.672Z,7.92
2018-11-29T21:05:04.789Z,7.95
2018-11-29T21:07:40.121Z,7.79
2018-11-29T21:10:17.855Z,7.72
2018-11-29T21:12:52.805Z,7.19
2018-11-29T21:15:27.735Z,7.07
2018-11-29T21:18:02.852Z,7.04
2018-11-29T21:20:37.826Z,6.93
2018-11-29T21:23:14.443Z,6.88
2018-11-29T21:25:49.473Z,6.80
2018-11-29T21:28:24.441Z,6.49
2018-11-29T21:30:59.903Z,6.22
2018-11-29T21:33:34.744Z,6.25
2018-11-29T21:36:09.644Z,6.35
2018-11-29T21:38:44.574Z,6.32
2018-11-29T21:41:19.915Z,6.41
2018-11-29T21:43:54.727Z,6.16
2018-11-29T21:46:29.781Z,6.05
2018-11-29T21:49:04.518Z,6.23
2018-11-29T21:51:39.607Z,6.57
2018-11-29T21:54:14.570Z,6.27
2018-11-29T21:56:49.264Z,5.92
2018-11-29T21:59:24.176Z,5.83
2018-11-29T22:01:58.957Z,5.82
2018-11-29T22:04:33.842Z,5.83
2018-11-29T22:07:08.817Z,5.88
2018-11-29T22:09:43.545Z,6.20
2018-11-29T22:12:18.432Z,6.32
2018-11-29T22:14:53.217Z,6.61
2018-11-29T22:17:28.265Z,6.71
2018-11-29T22:20:03.730Z,7.05
2018-11-29T22:22:38.737Z,6.82
2018-11-29T22:25:14.175Z,6.74
2018-11-29T22:27:49.086Z,6.62
2018-11-29T22:30:23.818Z,6.18
2018-11-29T22:32:58.744Z,6.43
2018-11-29T22:35:34.160Z,6.68
2018-11-29T22:38:09.082Z,7.03
2018-11-29T22:40:43.906Z,7.11
2018-11-29T22:43:18.878Z,6.93
2018-11-29T22:45:53.924Z,7.12
2018-11-29T22:48:28.945Z,7.22
2018-11-29T22:51:03.774Z,7.16
2018-11-29T22:53:38.607Z,7.31
2018-11-29T22:56:13.456Z,7.61
2018-11-29T22:58:48.127Z,7.70
2018-11-29T23:01:27.481Z,7.86
2018-11-29T23:04:02.425Z,8.03
2018-11-29T23:06:37.373Z,8.13
2018-11-29T23:09:12.084Z,8.21
2018-11-29T23:11:47.015Z,8.22
2018-11-29T23:14:21.848Z,8.09
2018-11-29T23:16:56.774Z,7.88
2018-11-29T23:19:31.603Z,8.03
2018-11-29T23:22:06.636Z,8.01
2018-11-29T23:24:42.340Z,7.87
2018-11-29T23:27:17.171Z,7.56
2018-11-29T23:29:52.058Z,7.20
2018-11-29T23:32:27.108Z,6.98
2018-11-29T23:35:01.917Z,7.11
2018-11-29T23:37:36.838Z,7.16
2018-11-29T23:40:16.415Z,7.23
2018-11-29T23:42:51.208Z,7.45
2018-11-29T23:45:25.983Z,7.78
2018-11-29T23:48:00.781Z,7.93
2018-11-29T23:50:35.808Z,7.94
2018-11-29T23:53:10.480Z,7.89
2018-11-29T23:55:45.555Z,7.65
2018-11-29T23:58:20.133Z,7.78
